Terminal Aerodrome Forecast
Issued by NWS

Home | Current Version | Previous Version | Text Only | Print | Product List | Glossary Off
Versions: 1 2 3 4 5 6 7 8 9 10 11 12 13 14 15 16 17 18

305
FTUS43 KMPX 240520
TAFAXN
TAF
KAXN 240520Z 2406/2506 08016G23KT P6SM BKN200
     FM240800 11013KT P6SM BKN200
     FM241400 14014KT P6SM BKN200
     FM241800 16018G29KT P6SM BKN150
     FM242200 18015G23KT P6SM OVC030=

USA.gov is the U.S. government's official web portal to all federal, state and local government web resources and services.